sensor_id;sensor_type;location;lat;lon;timestamp;P1;durP1;ratioP1;P2;durP2;ratioP2
20972;SDS011;10645;52.370;13.314;2022-09-01T00:00:44;0.45;;;0.45;;
20972;SDS011;10645;52.370;13.314;2022-09-01T00:03:17;0.20;;;0.20;;
20972;SDS011;10645;52.370;13.314;2022-09-01T00:05:44;0.40;;;0.30;;
20972;SDS011;10645;52.370;13.314;2022-09-01T00:08:11;0.20;;;0.20;;
20972;SDS011;10645;52.370;13.314;2022-09-01T00:10:38;0.10;;;0.10;;
20972;SDS011;10645;52.370;13.314;2022-09-01T00:13:05;1.08;;;0.30;;
20972;SDS011;10645;52.370;13.314;2022-09-01T00:15:32;0.73;;;0.73;;
20972;SDS011;10645;52.370;13.314;2022-09-01T00:17:59;1.10;;;0.65;;
20972;SDS011;10645;52.370;13.314;2022-09-01T00:20:25;0.30;;;0.30;;
20972;SDS011;10645;52.370;13.314;2022-09-01T00:22:52;0.30;;;0.25;;
20972;SDS011;10645;52.370;13.314;2022-09-01T00:25:18;0.20;;;0.20;;
20972;SDS011;10645;52.370;13.314;2022-09-01T00:27:45;0.25;;;0.25;;
20972;SDS011;10645;52.370;13.314;2022-09-01T00:30:12;0.75;;;0.73;;
20972;SDS011;10645;52.370;13.314;2022-09-01T00:32:39;0.40;;;0.40;;
20972;SDS011;10645;52.370;13.314;2022-09-01T00:35:05;0.35;;;0.30;;
20972;SDS011;10645;52.370;13.314;2022-09-01T00:37:33;0.20;;;0.20;;
20972;SDS011;10645;52.370;13.314;2022-09-01T00:39:59;0.10;;;0.10;;
20972;SDS011;10645;52.370;13.314;2022-09-01T00:42:25;0.57;;;0.57;;
20972;SDS011;10645;52.370;13.314;2022-09-01T00:44:51;0.28;;;0.28;;
20972;SDS011;10645;52.370;13.314;2022-09-01T00:47:17;0.40;;;0.40;;
20972;SDS011;10645;52.370;13.314;2022-09-01T00:49:44;0.38;;;0.30;;
20972;SDS011;10645;52.370;13.314;2022-09-01T00:52:15;0.38;;;0.38;;
20972;SDS011;10645;52.370;13.314;2022-09-01T00:54:56;0.30;;;0.22;;
20972;SDS011;10645;52.370;13.314;2022-09-01T00:57:25;0.70;;;0.52;;
20972;SDS011;10645;52.370;13.314;2022-09-01T01:00:04;0.68;;;0.68;;
20972;SDS011;10645;52.370;13.314;2022-09-01T01:02:36;0.43;;;0.32;;
20972;SDS011;10645;52.370;13.314;2022-09-01T01:05:05;0.10;;;0.10;;
20972;SDS011;10645;52.370;13.314;2022-09-01T01:07:32;0.20;;;0.20;;
20972;SDS011;10645;52.370;13.314;2022-09-01T01:10:04;0.77;;;0.40;;
20972;SDS011;10645;52.370;13.314;2022-09-01T01:12:31;0.38;;;0.38;;
20972;SDS011;10645;52.370;13.314;2022-09-01T01:15:00;0.20;;;0.20;;
20972;SDS011;10645;52.370;13.314;2022-09-01T01:17:28;0.20;;;0.13;;
20972;SDS011;10645;52.370;13.314;2022-09-01T01:19:56;0.20;;;0.20;;
20972;SDS011;10645;52.370;13.314;2022-09-01T01:22:51;0.77;;;0.68;;
20972;SDS011;10645;52.370;13.314;2022-09-01T01:25:39;0.40;;;0.40;;
20972;SDS011;10645;52.370;13.314;2022-09-01T01:30:56;0.20;;;0.20;;
20972;SDS011;10645;52.370;13.314;2022-09-01T01:33:31;0.10;;;0.10;;
20972;SDS011;10645;52.370;13.314;2022-09-01T01:35:59;0.28;;;0.28;;
20972;SDS011;10645;52.370;13.314;2022-09-01T01:38:26;0.35;;;0.35;;
20972;SDS011;10645;52.370;13.314;2022-09-01T01:40:55;0.10;;;0.10;;
20972;SDS011;10645;52.370;13.314;2022-09-01T01:43:23;0.63;;;0.52;;
20972;SDS011;10645;52.370;13.314;2022-09-01T01:45:52;0.30;;;0.30;;
20972;SDS011;10645;52.370;13.314;2022-09-01T01:48:23;0.63;;;0.40;;
20972;SDS011;10645;52.370;13.314;2022-09-01T01:50:50;3.55;;;0.43;;
20972;SDS011;10645;52.370;13.314;2022-09-01T01:53:17;0.57;;;0.40;;
20972;SDS011;10645;52.370;13.314;2022-09-01T01:55:45;0.10;;;0.10;;
20972;SDS011;10645;52.370;13.314;2022-09-01T01:58:17;0.80;;;0.28;;
20972;SDS011;10645;52.370;13.314;2022-09-01T02:00:46;0.10;;;0.10;;
20972;SDS011;10645;52.370;13.314;2022-09-01T02:03:15;0.10;;;0.10;;
20972;SDS011;10645;52.370;13.314;2022-09-01T02:05:47;0.60;;;0.60;;
20972;SDS011;10645;52.370;13.314;2022-09-01T02:08:15;1.48;;;0.47;;
20972;SDS011;10645;52.370;13.314;2022-09-01T02:10:47;0.20;;;0.20;;
20972;SDS011;10645;52.370;13.314;2022-09-01T02:13:17;0.38;;;0.30;;
20972;SDS011;10645;52.370;13.314;2022-09-01T02:15:47;1.38;;;1.00;;
20972;SDS011;10645;52.370;13.314;2022-09-01T02:18:20;0.20;;;0.20;;
20972;SDS011;10645;52.370;13.314;2022-09-01T02:20:57;0.22;;;0.22;;
20972;SDS011;10645;52.370;13.314;2022-09-01T02:23:24;0.10;;;0.10;;
20972;SDS011;10645;52.370;13.314;2022-09-01T02:25:54;0.50;;;0.30;;
20972;SDS011;10645;52.370;13.314;2022-09-01T02:28:25;0.25;;;0.25;;
20972;SDS011;10645;52.370;13.314;2022-09-01T02:30:52;1.25;;;0.73;;
20972;SDS011;10645;52.370;13.314;2022-09-01T02:33:23;0.32;;;0.32;;
20972;SDS011;10645;52.370;13.314;2022-09-01T02:35:50;0.30;;;0.22;;
20972;SDS011;10645;52.370;13.314;2022-09-01T02:38:19;1.35;;;0.25;;
20972;SDS011;10645;52.370;13.314;2022-09-01T02:40:51;0.50;;;0.40;;
20972;SDS011;10645;52.370;13.314;2022-09-01T02:43:18;2.22;;;0.50;;
20972;SDS011;10645;52.370;13.314;2022-09-01T02:45:47;0.13;;;0.13;;
20972;SDS011;10645;52.370;13.314;2022-09-01T02:48:20;0.10;;;0.10;;
20972;SDS011;10645;52.370;13.314;2022-09-01T02:50:58;0.43;;;0.38;;
20972;SDS011;10645;52.370;13.314;2022-09-01T02:53:29;0.50;;;0.50;;
20972;SDS011;10645;52.370;13.314;2022-09-01T02:55:59;0.25;;;0.20;;
20972;SDS011;10645;52.370;13.314;2022-09-01T02:58:28;2.17;;;0.60;;
20972;SDS011;10645;52.370;13.314;2022-09-01T03:00:57;0.43;;;0.28;;
20972;SDS011;10645;52.370;13.314;2022-09-01T03:03:24;0.20;;;0.20;;
20972;SDS011;10645;52.370;13.314;2022-09-01T03:05:51;0.70;;;0.70;;
20972;SDS011;10645;52.370;13.314;2022-09-01T03:08:20;0.28;;;0.25;;
20972;SDS011;10645;52.370;13.314;2022-09-01T03:10:49;0.30;;;0.30;;
20972;SDS011;10645;52.370;13.314;2022-09-01T03:13:20;0.10;;;0.10;;
20972;SDS011;10645;52.370;13.314;2022-09-01T03:15:48;0.47;;;0.13;;
20972;SDS011;10645;52.370;13.314;2022-09-01T03:18:15;0.30;;;0.30;;
20972;SDS011;10645;52.370;13.314;2022-09-01T03:20:43;0.13;;;0.13;;
20972;SDS011;10645;52.370;13.314;2022-09-01T03:23:12;0.55;;;0.40;;
20972;SDS011;10645;52.370;13.314;2022-09-01T03:25:41;0.55;;;0.45;;
20972;SDS011;10645;52.370;13.314;2022-09-01T03:28:10;0.40;;;0.20;;
20972;SDS011;10645;52.370;13.314;2022-09-01T03:30:42;0.52;;;0.50;;
20972;SDS011;10645;52.370;13.314;2022-09-01T03:33:13;0.35;;;0.35;;
20972;SDS011;10645;52.370;13.314;2022-09-01T03:35:42;1.58;;;0.57;;
20972;SDS011;10645;52.370;13.314;2022-09-01T03:38:09;0.05;;;0.05;;
20972;SDS011;10645;52.370;13.314;2022-09-01T03:40:37;0.28;;;0.25;;
20972;SDS011;10645;52.370;13.314;2022-09-01T03:43:05;0.10;;;0.10;;
20972;SDS011;10645;52.370;13.314;2022-09-01T03:45:40;0.70;;;0.55;;
20972;SDS011;10645;52.370;13.314;2022-09-01T03:48:07;41.35;;;24.15;;
20972;SDS011;10645;52.370;13.314;2022-09-01T03:50:35;49.40;;;36.55;;
20972;SDS011;10645;52.370;13.314;2022-09-01T03:53:10;44.25;;;32.90;;
20972;SDS011;10645;52.370;13.314;2022-09-01T03:55:42;5.63;;;3.50;;
20972;SDS011;10645;52.370;13.314;2022-09-01T03:58:10;0.65;;;0.35;;
20972;SDS011;10645;52.370;13.314;2022-09-01T04:00:41;0.30;;;0.30;;
20972;SDS011;10645;52.370;13.314;2022-09-01T04:03:09;0.93;;;0.52;;
20972;SDS011;10645;52.370;13.314;2022-09-01T04:05:38;0.35;;;0.35;;
20972;SDS011;10645;52.370;13.314;2022-09-01T04:08:08;0.52;;;0.45;;
20972;SDS011;10645;52.370;13.314;2022-09-01T04:10:42;0.98;;;0.93;;
20972;SDS011;10645;52.370;13.314;2022-09-01T04:13:18;0.30;;;0.30;;
20972;SDS011;10645;52.370;13.314;2022-09-01T04:15:47;0.30;;;0.30;;
20972;SDS011;10645;52.370;13.314;2022-09-01T04:18:13;0.40;;;0.13;;
20972;SDS011;10645;52.370;13.314;2022-09-01T04:20:49;1.13;;;1.02;;
20972;SDS011;10645;52.370;13.314;2022-09-01T04:23:23;0.40;;;0.40;;
20972;SDS011;10645;52.370;13.314;2022-09-01T04:25:58;0.30;;;0.30;;
20972;SDS011;10645;52.370;13.314;2022-09-01T04:28:41;0.85;;;0.85;;
20972;SDS011;10645;52.370;13.314;2022-09-01T04:31:18;0.57;;;0.40;;
20972;SDS011;10645;52.370;13.314;2022-09-01T04:33:48;5.38;;;1.50;;
20972;SDS011;10645;52.370;13.314;2022-09-01T04:36:20;0.20;;;0.20;;
20972;SDS011;10645;52.370;13.314;2022-09-01T04:38:53;0.90;;;0.40;;
20972;SDS011;10645;52.370;13.314;2022-09-01T04:41:24;0.20;;;0.20;;
20972;SDS011;10645;52.370;13.314;2022-09-01T04:43:52;0.30;;;0.30;;
20972;SDS011;10645;52.370;13.314;2022-09-01T04:46:22;0.30;;;0.30;;
20972;SDS011;10645;52.370;13.314;2022-09-01T04:48:52;0.32;;;0.32;;
20972;SDS011;10645;52.370;13.314;2022-09-01T04:51:18;3.90;;;0.38;;
20972;SDS011;10645;52.370;13.314;2022-09-01T04:53:52;0.25;;;0.25;;
20972;SDS011;10645;52.370;13.314;2022-09-01T04:56:20;2.35;;;0.52;;
20972;SDS011;10645;52.370;13.314;2022-09-01T04:59:01;0.50;;;0.50;;
20972;SDS011;10645;52.370;13.314;2022-09-01T05:01:32;1.17;;;1.10;;
20972;SDS011;10645;52.370;13.314;2022-09-01T05:04:08;0.40;;;0.40;;
20972;SDS011;10645;52.370;13.314;2022-09-01T05:06:39;1.23;;;1.13;;
20972;SDS011;10645;52.370;13.314;2022-09-01T05:09:08;0.20;;;0.20;;
20972;SDS011;10645;52.370;13.314;2022-09-01T05:11:49;0.25;;;0.25;;
20972;SDS011;10645;52.370;13.314;2022-09-01T05:14:27;0.73;;;0.73;;
20972;SDS011;10645;52.370;13.314;2022-09-01T05:16:56;0.35;;;0.35;;
20972;SDS011;10645;52.370;13.314;2022-09-01T05:19:25;2.55;;;0.38;;
20972;SDS011;10645;52.370;13.314;2022-09-01T05:21:55;0.22;;;0.22;;
20972;SDS011;10645;52.370;13.314;2022-09-01T05:24:23;0.98;;;0.85;;
20972;SDS011;10645;52.370;13.314;2022-09-01T05:26:55;1.67;;;1.35;;
20972;SDS011;10645;52.370;13.314;2022-09-01T05:29:22;0.90;;;0.65;;
20972;SDS011;10645;52.370;13.314;2022-09-01T05:31:48;4.28;;;1.15;;
20972;SDS011;10645;52.370;13.314;2022-09-01T05:34:18;1.10;;;1.10;;
20972;SDS011;10645;52.370;13.314;2022-09-01T05:36:53;3.53;;;0.60;;
20972;SDS011;10645;52.370;13.314;2022-09-01T05:39:25;2.13;;;1.13;;
20972;SDS011;10645;52.370;13.314;2022-09-01T05:41:51;0.57;;;0.57;;
20972;SDS011;10645;52.370;13.314;2022-09-01T05:44:19;0.57;;;0.57;;
20972;SDS011;10645;52.370;13.314;2022-09-01T05:46:48;0.60;;;0.57;;
20972;SDS011;10645;52.370;13.314;2022-09-01T05:49:15;0.52;;;0.52;;
20972;SDS011;10645;52.370;13.314;2022-09-01T05:51:45;0.65;;;0.57;;
20972;SDS011;10645;52.370;13.314;2022-09-01T05:54:22;1.17;;;0.45;;
20972;SDS011;10645;52.370;13.314;2022-09-01T05:56:52;1.30;;;0.68;;
20972;SDS011;10645;52.370;13.314;2022-09-01T05:59:24;1.98;;;0.50;;
20972;SDS011;10645;52.370;13.314;2022-09-01T06:01:53;0.50;;;0.50;;
20972;SDS011;10645;52.370;13.314;2022-09-01T06:04:20;0.68;;;0.68;;
20972;SDS011;10645;52.370;13.314;2022-09-01T06:06:47;1.35;;;0.98;;
20972;SDS011;10645;52.370;13.314;2022-09-01T06:09:17;0.40;;;0.40;;
20972;SDS011;10645;52.370;13.314;2022-09-01T06:11:45;0.22;;;0.22;;
20972;SDS011;10645;52.370;13.314;2022-09-01T06:14:13;0.63;;;0.63;;
20972;SDS011;10645;52.370;13.314;2022-09-01T06:16:41;7.22;;;0.80;;
20972;SDS011;10645;52.370;13.314;2022-09-01T06:19:08;0.40;;;0.40;;
20972;SDS011;10645;52.370;13.314;2022-09-01T06:21:39;1.90;;;0.60;;
20972;SDS011;10645;52.370;13.314;2022-09-01T06:24:05;1.85;;;1.10;;
20972;SDS011;10645;52.370;13.314;2022-09-01T06:26:33;1.00;;;1.00;;
20972;SDS011;10645;52.370;13.314;2022-09-01T06:29:02;0.30;;;0.30;;
20972;SDS011;10645;52.370;13.314;2022-09-01T06:31:32;1.02;;;1.02;;
20972;SDS011;10645;52.370;13.314;2022-09-01T06:34:05;1.92;;;1.05;;
20972;SDS011;10645;52.370;13.314;2022-09-01T06:36:35;0.73;;;0.60;;
20972;SDS011;10645;52.370;13.314;2022-09-01T06:39:03;0.32;;;0.30;;
20972;SDS011;10645;52.370;13.314;2022-09-01T06:41:29;3.33;;;0.85;;
20972;SDS011;10645;52.370;13.314;2022-09-01T06:43:56;0.45;;;0.45;;
20972;SDS011;10645;52.370;13.314;2022-09-01T06:46:26;0.88;;;0.50;;
20972;SDS011;10645;52.370;13.314;2022-09-01T06:48:55;1.05;;;0.60;;
20972;SDS011;10645;52.370;13.314;2022-09-01T06:51:24;0.68;;;0.50;;
20972;SDS011;10645;52.370;13.314;2022-09-01T06:53:55;0.52;;;0.52;;
20972;SDS011;10645;52.370;13.314;2022-09-01T06:56:22;0.30;;;0.30;;
20972;SDS011;10645;52.370;13.314;2022-09-01T06:58:52;0.60;;;0.60;;
20972;SDS011;10645;52.370;13.314;2022-09-01T07:01:20;0.38;;;0.32;;
20972;SDS011;10645;52.370;13.314;2022-09-01T07:03:50;1.80;;;1.17;;
20972;SDS011;10645;52.370;13.314;2022-09-01T07:06:29;0.88;;;0.45;;
20972;SDS011;10645;52.370;13.314;2022-09-01T07:09:14;1.13;;;0.20;;
20972;SDS011;10645;52.370;13.314;2022-09-01T07:11:42;0.20;;;0.20;;
20972;SDS011;10645;52.370;13.314;2022-09-01T07:14:08;0.85;;;0.47;;
20972;SDS011;10645;52.370;13.314;2022-09-01T07:16:36;0.95;;;0.57;;
20972;SDS011;10645;52.370;13.314;2022-09-01T07:19:05;0.63;;;0.63;;
20972;SDS011;10645;52.370;13.314;2022-09-01T07:21:46;0.30;;;0.30;;
20972;SDS011;10645;52.370;13.314;2022-09-01T07:24:13;0.45;;;0.40;;
20972;SDS011;10645;52.370;13.314;2022-09-01T07:27:02;2.55;;;0.43;;
20972;SDS011;10645;52.370;13.314;2022-09-01T07:29:28;0.28;;;0.28;;
20972;SDS011;10645;52.370;13.314;2022-09-01T07:31:54;0.10;;;0.10;;
20972;SDS011;10645;52.370;13.314;2022-09-01T07:34:21;1.02;;;0.40;;
20972;SDS011;10645;52.370;13.314;2022-09-01T07:36:47;0.32;;;0.28;;
20972;SDS011;10645;52.370;13.314;2022-09-01T07:39:14;0.63;;;0.63;;
20972;SDS011;10645;52.370;13.314;2022-09-01T07:41:49;0.32;;;0.32;;
20972;SDS011;10645;52.370;13.314;2022-09-01T07:44:36;0.57;;;0.57;;
20972;SDS011;10645;52.370;13.314;2022-09-01T07:47:32;0.30;;;0.30;;
20972;SDS011;10645;52.370;13.314;2022-09-01T07:50:03;0.30;;;0.30;;
20972;SDS011;10645;52.370;13.314;2022-09-01T07:52:33;1.13;;;0.55;;
20972;SDS011;10645;52.370;13.314;2022-09-01T07:55:01;0.30;;;0.30;;
20972;SDS011;10645;52.370;13.314;2022-09-01T07:57:28;0.40;;;0.40;;
20972;SDS011;10645;52.370;13.314;2022-09-01T07:59:54;0.30;;;0.30;;
20972;SDS011;10645;52.370;13.314;2022-09-01T08:02:38;0.32;;;0.32;;
20972;SDS011;10645;52.370;13.314;2022-09-01T08:05:06;0.50;;;0.40;;
20972;SDS011;10645;52.370;13.314;2022-09-01T08:07:35;0.50;;;0.50;;
20972;SDS011;10645;52.370;13.314;2022-09-01T08:10:05;0.30;;;0.30;;
20972;SDS011;10645;52.370;13.314;2022-09-01T08:12:37;1.08;;;1.08;;
20972;SDS011;10645;52.370;13.314;2022-09-01T08:15:04;0.10;;;0.10;;
20972;SDS011;10645;52.370;13.314;2022-09-01T08:17:32;0.20;;;0.20;;
20972;SDS011;10645;52.370;13.314;2022-09-01T08:20:03;0.30;;;0.20;;
20972;SDS011;10645;52.370;13.314;2022-09-01T08:22:46;1.58;;;0.52;;
20972;SDS011;10645;52.370;13.314;2022-09-01T08:25:23;0.20;;;0.20;;
20972;SDS011;10645;52.370;13.314;2022-09-01T08:27:51;0.20;;;0.15;;
20972;SDS011;10645;52.370;13.314;2022-09-01T08:30:17;0.30;;;0.22;;
20972;SDS011;10645;52.370;13.314;2022-09-01T08:32:44;0.38;;;0.38;;
20972;SDS011;10645;52.370;13.314;2022-09-01T08:35:11;0.32;;;0.32;;
20972;SDS011;10645;52.370;13.314;2022-09-01T08:37:38;0.60;;;0.50;;
20972;SDS011;10645;52.370;13.314;2022-09-01T08:40:05;1.30;;;0.25;;
20972;SDS011;10645;52.370;13.314;2022-09-01T08:45:49;1.75;;;0.22;;
20972;SDS011;10645;52.370;13.314;2022-09-01T08:51:24;0.10;;;0.10;;
20972;SDS011;10645;52.370;13.314;2022-09-01T08:54:09;0.57;;;0.32;;
20972;SDS011;10645;52.370;13.314;2022-09-01T08:56:49;0.20;;;0.20;;
20972;SDS011;10645;52.370;13.314;2022-09-01T08:59:20;0.73;;;0.40;;
20972;SDS011;10645;52.370;13.314;2022-09-01T09:02:25;0.50;;;0.50;;
20972;SDS011;10645;52.370;13.314;2022-09-01T09:08:01;1.13;;;0.30;;
20972;SDS011;10645;52.370;13.314;2022-09-01T09:10:59;0.38;;;0.30;;
20972;SDS011;10645;52.370;13.314;2022-09-01T09:13:31;0.20;;;0.20;;
20972;SDS011;10645;52.370;13.314;2022-09-01T09:16:26;2.92;;;0.68;;
20972;SDS011;10645;52.370;13.314;2022-09-01T09:19:14;3.30;;;1.63;;
20972;SDS011;10645;52.370;13.314;2022-09-01T09:21:57;0.10;;;0.10;;
20972;SDS011;10645;52.370;13.314;2022-09-01T09:24:26;0.28;;;0.20;;
20972;SDS011;10645;52.370;13.314;2022-09-01T09:27:34;1.02;;;0.40;;
20972;SDS011;10645;52.370;13.314;2022-09-01T09:30:04;0.30;;;0.30;;
20972;SDS011;10645;52.370;13.314;2022-09-01T09:32:46;0.20;;;0.15;;
20972;SDS011;10645;52.370;13.314;2022-09-01T09:37:55;0.38;;;0.38;;
20972;SDS011;10645;52.370;13.314;2022-09-01T09:40:22;0.60;;;0.25;;
20972;SDS011;10645;52.370;13.314;2022-09-01T09:45:22;0.17;;;0.17;;
20972;SDS011;10645;52.370;13.314;2022-09-01T09:47:51;3.30;;;0.52;;
20972;SDS011;10645;52.370;13.314;2022-09-01T09:50:42;0.43;;;0.30;;
20972;SDS011;10645;52.370;13.314;2022-09-01T09:58:24;0.32;;;0.32;;
20972;SDS011;10645;52.370;13.314;2022-09-01T10:00:57;0.43;;;0.43;;
20972;SDS011;10645;52.370;13.314;2022-09-01T10:03:35;0.45;;;0.35;;
20972;SDS011;10645;52.370;13.314;2022-09-01T10:06:28;0.45;;;0.45;;
20972;SDS011;10645;52.370;13.314;2022-09-01T10:09:04;0.25;;;0.25;;
20972;SDS011;10645;52.370;13.314;2022-09-01T10:11:40;0.50;;;0.50;;
20972;SDS011;10645;52.370;13.314;2022-09-01T10:17:07;0.30;;;0.30;;
20972;SDS011;10645;52.370;13.314;2022-09-01T10:19:37;0.52;;;0.52;;
20972;SDS011;10645;52.370;13.314;2022-09-01T10:22:10;2.42;;;1.52;;
20972;SDS011;10645;52.370;13.314;2022-09-01T10:24:37;0.60;;;0.57;;
20972;SDS011;10645;52.370;13.314;2022-09-01T10:27:06;0.20;;;0.20;;
20972;SDS011;10645;52.370;13.314;2022-09-01T10:29:42;0.40;;;0.40;;
20972;SDS011;10645;52.370;13.314;2022-09-01T10:32:20;0.68;;;0.32;;
20972;SDS011;10645;52.370;13.314;2022-09-01T10:34:57;0.70;;;0.70;;
20972;SDS011;10645;52.370;13.314;2022-09-01T10:37:26;0.20;;;0.20;;
20972;SDS011;10645;52.370;13.314;2022-09-01T10:42:58;0.30;;;0.30;;
20972;SDS011;10645;52.370;13.314;2022-09-01T10:45:46;0.35;;;0.35;;
20972;SDS011;10645;52.370;13.314;2022-09-01T10:50:51;1.00;;;0.47;;
20972;SDS011;10645;52.370;13.314;2022-09-01T10:56:20;0.40;;;0.40;;
20972;SDS011;10645;52.370;13.314;2022-09-01T11:09:06;0.30;;;0.30;;
20972;SDS011;10645;52.370;13.314;2022-09-01T11:14:46;0.30;;;0.30;;
20972;SDS011;10645;52.370;13.314;2022-09-01T11:17:24;0.10;;;0.10;;
20972;SDS011;10645;52.370;13.314;2022-09-01T11:25:10;0.70;;;0.40;;
20972;SDS011;10645;52.370;13.314;2022-09-01T11:28:01;0.10;;;0.10;;
20972;SDS011;10645;52.370;13.314;2022-09-01T11:32:58;0.38;;;0.38;;
20972;SDS011;10645;52.370;13.314;2022-09-01T11:35:47;0.30;;;0.28;;
20972;SDS011;10645;52.370;13.314;2022-09-01T11:38:37;0.32;;;0.32;;
20972;SDS011;10645;52.370;13.314;2022-09-01T11:41:25;0.22;;;0.22;;
20972;SDS011;10645;52.370;13.314;2022-09-01T11:43:57;0.17;;;0.17;;
20972;SDS011;10645;52.370;13.314;2022-09-01T11:46:32;0.20;;;0.20;;
20972;SDS011;10645;52.370;13.314;2022-09-01T11:49:06;0.38;;;0.32;;
20972;SDS011;10645;52.370;13.314;2022-09-01T11:51:46;0.30;;;0.30;;
20972;SDS011;10645;52.370;13.314;2022-09-01T11:54:13;0.10;;;0.10;;
20972;SDS011;10645;52.370;13.314;2022-09-01T11:56:40;0.30;;;0.30;;
20972;SDS011;10645;52.370;13.314;2022-09-01T11:59:06;0.85;;;0.38;;
20972;SDS011;10645;52.370;13.314;2022-09-01T12:01:34;0.30;;;0.30;;
20972;SDS011;10645;52.370;13.314;2022-09-01T12:04:18;0.43;;;0.43;;
20972;SDS011;10645;52.370;13.314;2022-09-01T12:06:51;0.20;;;0.20;;
20972;SDS011;10645;52.370;13.314;2022-09-01T12:09:30;0.30;;;0.30;;
20972;SDS011;10645;52.370;13.314;2022-09-01T12:11:57;0.28;;;0.28;;
20972;SDS011;10645;52.370;13.314;2022-09-01T12:14:23;0.25;;;0.25;;
20972;SDS011;10645;52.370;13.314;2022-09-01T12:16:57;0.30;;;0.30;;
20972;SDS011;10645;52.370;13.314;2022-09-01T12:19:27;0.20;;;0.20;;
20972;SDS011;10645;52.370;13.314;2022-09-01T12:22:03;0.30;;;0.30;;
20972;SDS011;10645;52.370;13.314;2022-09-01T12:24:43;0.20;;;0.20;;
20972;SDS011;10645;52.370;13.314;2022-09-01T12:27:11;0.30;;;0.25;;
20972;SDS011;10645;52.370;13.314;2022-09-01T12:29:39;0.20;;;0.20;;
20972;SDS011;10645;52.370;13.314;2022-09-01T12:32:05;0.30;;;0.30;;
20972;SDS011;10645;52.370;13.314;2022-09-01T12:39:43;0.30;;;0.20;;
20972;SDS011;10645;52.370;13.314;2022-09-01T12:44:45;0.17;;;0.17;;
20972;SDS011;10645;52.370;13.314;2022-09-01T12:49:59;0.52;;;0.20;;
20972;SDS011;10645;52.370;13.314;2022-09-01T12:52:55;0.10;;;0.10;;
20972;SDS011;10645;52.370;13.314;2022-09-01T12:55:25;2.33;;;0.40;;
20972;SDS011;10645;52.370;13.314;2022-09-01T12:57:52;0.30;;;0.30;;
20972;SDS011;10645;52.370;13.314;2022-09-01T13:00:24;0.10;;;0.10;;
20972;SDS011;10645;52.370;13.314;2022-09-01T13:05:23;0.20;;;0.20;;
20972;SDS011;10645;52.370;13.314;2022-09-01T13:07:56;0.43;;;0.30;;
20972;SDS011;10645;52.370;13.314;2022-09-01T13:10:24;0.82;;;0.82;;
20972;SDS011;10645;52.370;13.314;2022-09-01T13:12:53;1.15;;;0.20;;
20972;SDS011;10645;52.370;13.314;2022-09-01T13:15:20;0.75;;;0.75;;
20972;SDS011;10645;52.370;13.314;2022-09-01T13:17:46;0.17;;;0.17;;
20972;SDS011;10645;52.370;13.314;2022-09-01T13:20:12;0.20;;;0.20;;
20972;SDS011;10645;52.370;13.314;2022-09-01T13:22:39;0.10;;;0.10;;
20972;SDS011;10645;52.370;13.314;2022-09-01T13:25:10;0.20;;;0.20;;
20972;SDS011;10645;52.370;13.314;2022-09-01T13:27:38;0.55;;;0.30;;
20972;SDS011;10645;52.370;13.314;2022-09-01T13:30:09;0.32;;;0.32;;
20972;SDS011;10645;52.370;13.314;2022-09-01T13:32:36;0.52;;;0.25;;
20972;SDS011;10645;52.370;13.314;2022-09-01T13:35:03;0.20;;;0.20;;
20972;SDS011;10645;52.370;13.314;2022-09-01T13:37:29;2.33;;;0.68;;
20972;SDS011;10645;52.370;13.314;2022-09-01T13:39:55;0.43;;;0.20;;
20972;SDS011;10645;52.370;13.314;2022-09-01T13:42:21;0.38;;;0.38;;
20972;SDS011;10645;52.370;13.314;2022-09-01T13:44:47;0.22;;;0.22;;
20972;SDS011;10645;52.370;13.314;2022-09-01T13:47:13;0.25;;;0.25;;
20972;SDS011;10645;52.370;13.314;2022-09-01T13:49:39;0.75;;;0.60;;
20972;SDS011;10645;52.370;13.314;2022-09-01T13:52:05;0.10;;;0.10;;
20972;SDS011;10645;52.370;13.314;2022-09-01T13:54:31;0.10;;;0.10;;
20972;SDS011;10645;52.370;13.314;2022-09-01T13:56:58;0.20;;;0.20;;
20972;SDS011;10645;52.370;13.314;2022-09-01T13:59:24;0.10;;;0.10;;
20972;SDS011;10645;52.370;13.314;2022-09-01T14:01:50;0.57;;;0.50;;
20972;SDS011;10645;52.370;13.314;2022-09-01T14:04:16;0.28;;;0.28;;
20972;SDS011;10645;52.370;13.314;2022-09-01T14:06:44;0.20;;;0.20;;
20972;SDS011;10645;52.370;13.314;2022-09-01T14:09:11;0.30;;;0.30;;
20972;SDS011;10645;52.370;13.314;2022-09-01T14:11:38;0.20;;;0.20;;
20972;SDS011;10645;52.370;13.314;2022-09-01T14:14:04;0.73;;;0.40;;
20972;SDS011;10645;52.370;13.314;2022-09-01T14:16:30;0.22;;;0.22;;
20972;SDS011;10645;52.370;13.314;2022-09-01T14:18:57;0.40;;;0.40;;
20972;SDS011;10645;52.370;13.314;2022-09-01T14:21:24;0.40;;;0.40;;
20972;SDS011;10645;52.370;13.314;2022-09-01T14:23:51;0.50;;;0.40;;
20972;SDS011;10645;52.370;13.314;2022-09-01T14:26:17;0.20;;;0.20;;
20972;SDS011;10645;52.370;13.314;2022-09-01T14:28:44;0.20;;;0.20;;
20972;SDS011;10645;52.370;13.314;2022-09-01T14:31:12;1.25;;;0.40;;
20972;SDS011;10645;52.370;13.314;2022-09-01T14:33:40;0.30;;;0.30;;
20972;SDS011;10645;52.370;13.314;2022-09-01T14:36:07;0.20;;;0.20;;
20972;SDS011;10645;52.370;13.314;2022-09-01T14:38:40;0.17;;;0.17;;
20972;SDS011;10645;52.370;13.314;2022-09-01T14:41:06;0.20;;;0.20;;
20972;SDS011;10645;52.370;13.314;2022-09-01T14:43:32;0.30;;;0.30;;
20972;SDS011;10645;52.370;13.314;2022-09-01T14:46:05;0.20;;;0.20;;
20972;SDS011;10645;52.370;13.314;2022-09-01T14:48:34;0.20;;;0.20;;
20972;SDS011;10645;52.370;13.314;2022-09-01T14:51:02;0.40;;;0.30;;
20972;SDS011;10645;52.370;13.314;2022-09-01T14:53:28;0.30;;;0.30;;
20972;SDS011;10645;52.370;13.314;2022-09-01T14:55:56;0.00;;;0.00;;
20972;SDS011;10645;52.370;13.314;2022-09-01T14:58:23;0.32;;;0.32;;
20972;SDS011;10645;52.370;13.314;2022-09-01T15:00:51;0.25;;;0.25;;
20972;SDS011;10645;52.370;13.314;2022-09-01T15:03:21;0.10;;;0.10;;
20972;SDS011;10645;52.370;13.314;2022-09-01T15:05:48;0.28;;;0.28;;
20972;SDS011;10645;52.370;13.314;2022-09-01T15:08:15;0.47;;;0.20;;
20972;SDS011;10645;52.370;13.314;2022-09-01T15:10:41;0.25;;;0.25;;
20972;SDS011;10645;52.370;13.314;2022-09-01T15:13:08;0.20;;;0.20;;
20972;SDS011;10645;52.370;13.314;2022-09-01T15:15:34;0.50;;;0.50;;
20972;SDS011;10645;52.370;13.314;2022-09-01T15:18:00;0.20;;;0.20;;
20972;SDS011;10645;52.370;13.314;2022-09-01T15:20:27;0.30;;;0.30;;
20972;SDS011;10645;52.370;13.314;2022-09-01T15:23:17;0.28;;;0.28;;
20972;SDS011;10645;52.370;13.314;2022-09-01T15:25:46;1.20;;;0.85;;
20972;SDS011;10645;52.370;13.314;2022-09-01T15:28:13;0.30;;;0.30;;
20972;SDS011;10645;52.370;13.314;2022-09-01T15:30:39;0.52;;;0.40;;
20972;SDS011;10645;52.370;13.314;2022-09-01T15:33:08;0.10;;;0.10;;
20972;SDS011;10645;52.370;13.314;2022-09-01T15:35:34;0.20;;;0.20;;
20972;SDS011;10645;52.370;13.314;2022-09-01T15:38:01;0.43;;;0.43;;
20972;SDS011;10645;52.370;13.314;2022-09-01T15:40:27;1.35;;;0.88;;
20972;SDS011;10645;52.370;13.314;2022-09-01T15:42:53;0.20;;;0.20;;
20972;SDS011;10645;52.370;13.314;2022-09-01T15:45:21;0.20;;;0.20;;
20972;SDS011;10645;52.370;13.314;2022-09-01T15:47:48;0.32;;;0.32;;
20972;SDS011;10645;52.370;13.314;2022-09-01T15:50:16;0.03;;;0.03;;
20972;SDS011;10645;52.370;13.314;2022-09-01T15:52:46;0.30;;;0.30;;
20972;SDS011;10645;52.370;13.314;2022-09-01T15:55:15;0.10;;;0.10;;
20972;SDS011;10645;52.370;13.314;2022-09-01T15:57:42;0.63;;;0.55;;
20972;SDS011;10645;52.370;13.314;2022-09-01T16:00:09;0.65;;;0.50;;
20972;SDS011;10645;52.370;13.314;2022-09-01T16:02:38;0.32;;;0.32;;